createdAt,value
2018-10-15T00:01:25.766Z,99773.22
2018-10-15T00:03:51.774Z,99774.95
2018-10-15T00:06:17.745Z,99781.48
2018-10-15T00:08:43.747Z,99783.70
2018-10-15T00:11:09.732Z,99780.52
2018-10-15T00:13:35.715Z,99778.97
2018-10-15T00:16:01.658Z,99785.19
2018-10-15T00:18:27.625Z,99772.41
2018-10-15T00:20:53.555Z,99778.96
2018-10-15T00:23:19.521Z,99778.19
2018-10-15T00:25:45.495Z,99781.84
2018-10-15T00:28:11.440Z,99783.97
2018-10-15T00:30:37.444Z,99781.25
2018-10-15T00:33:03.428Z,99779.70
2018-10-15T00:35:29.381Z,99785.76
2018-10-15T00:37:55.363Z,99785.52
2018-10-15T00:40:21.327Z,99785.90
2018-10-15T00:42:47.332Z,99793.73
2018-10-15T00:45:13.300Z,99795.34
2018-10-15T00:47:39.296Z,99796.16
2018-10-15T00:50:05.271Z,99790.20
2018-10-15T00:52:31.239Z,99780.59
2018-10-15T00:54:57.213Z,99787.81
2018-10-15T00:57:23.158Z,99796.69
2018-10-15T00:59:49.112Z,99779.40
2018-10-15T01:02:15.068Z,99761.47
2018-10-15T01:04:41.026Z,99777.05
2018-10-15T01:07:07.048Z,99782.32
2018-10-15T01:09:33.045Z,99789.78
2018-10-15T01:11:59.002Z,99796.34
2018-10-15T01:14:25.010Z,99797.61
2018-10-15T01:16:50.994Z,99790.83
2018-10-15T01:19:17.067Z,99784.38
2018-10-15T01:21:43.109Z,99792.49
2018-10-15T01:24:09.075Z,99781.05
2018-10-15T01:26:35.056Z,99794.29
2018-10-15T01:29:01.019Z,99797.73
2018-10-15T01:31:26.984Z,99784.70
2018-10-15T01:33:52.938Z,99799.08
2018-10-15T01:36:18.923Z,99781.63
2018-10-15T01:38:44.962Z,99788.37
2018-10-15T01:41:10.962Z,99745.00
2018-10-15T01:43:36.959Z,99791.09
2018-10-15T01:46:02.915Z,99784.13
2018-10-15T01:48:28.889Z,99783.54
2018-10-15T01:50:54.875Z,99790.24
2018-10-15T01:53:20.831Z,99780.47
2018-10-15T01:55:46.838Z,99773.14
2018-10-15T01:58:12.783Z,99773.80
2018-10-15T02:00:38.775Z,99766.59
2018-10-15T02:03:04.764Z,99767.50
2018-10-15T02:05:30.719Z,99766.21
2018-10-15T02:07:56.679Z,99759.70
2018-10-15T02:10:22.654Z,99766.21
2018-10-15T02:12:48.630Z,99763.97
2018-10-15T02:15:14.619Z,99761.44
2018-10-15T02:17:40.561Z,99758.71
2018-10-15T02:20:06.551Z,99764.05
2018-10-15T02:22:32.518Z,99764.06
2018-10-15T02:24:58.489Z,99757.91
2018-10-15T02:27:24.463Z,99762.78
2018-10-15T02:29:50.427Z,99769.70
2018-10-15T02:32:16.399Z,99775.10
2018-10-15T02:34:42.379Z,99782.33
2018-10-15T02:37:08.350Z,99777.05
2018-10-15T02:39:34.301Z,99783.61
2018-10-15T02:42:00.260Z,99784.73
2018-10-15T02:44:26.275Z,99782.67
2018-10-15T02:46:52.255Z,99780.47
2018-10-15T02:49:18.251Z,99782.41
2018-10-15T02:51:44.200Z,99783.54
2018-10-15T02:54:10.170Z,99790.84
2018-10-15T02:56:36.146Z,99790.63
2018-10-15T02:59:02.086Z,99788.89
2018-10-15T03:01:28.057Z,99788.83
2018-10-15T03:03:54.035Z,99787.44
2018-10-15T03:06:20.002Z,99780.77
2018-10-15T03:08:45.992Z,99777.59
2018-10-15T03:11:11.969Z,99779.98
2018-10-15T03:13:37.979Z,99777.47
2018-10-15T03:16:03.997Z,99777.71
2018-10-15T03:18:30.028Z,99770.39
2018-10-15T03:20:55.995Z,99766.98
2018-10-15T03:23:21.977Z,99759.20
2018-10-15T03:25:47.992Z,99766.48
2018-10-15T03:28:14.975Z,99757.25
2018-10-15T03:30:40.953Z,99751.63
2018-10-15T03:33:06.893Z,99751.02
2018-10-15T03:35:33.850Z,99747.29
2018-10-15T03:37:59.824Z,99764.75
2018-10-15T03:40:29.683Z,99754.56
2018-10-15T03:42:55.741Z,99750.59
2018-10-15T03:45:21.754Z,99751.06
2018-10-15T03:47:47.740Z,99752.67
2018-10-15T03:50:13.737Z,99753.52
2018-10-15T03:52:39.727Z,99748.49
2018-10-15T03:55:05.708Z,99744.97
2018-10-15T03:57:31.724Z,99750.39
2018-10-15T03:59:57.757Z,99756.59
2018-10-15T04:02:23.893Z,99753.61
2018-10-15T04:04:49.760Z,99750.42
2018-10-15T04:07:15.739Z,99760.09
2018-10-15T04:09:41.812Z,99764.81
2018-10-15T04:12:07.856Z,99765.72
2018-10-15T04:14:33.827Z,99753.64
2018-10-15T04:16:59.787Z,99748.87
2018-10-15T04:19:25.782Z,99746.54
2018-10-15T04:21:51.762Z,99739.88
2018-10-15T04:24:17.743Z,99738.44
2018-10-15T04:26:43.713Z,99740.63
2018-10-15T04:29:09.689Z,99742.87
2018-10-15T04:31:35.656Z,99746.73
2018-10-15T04:34:01.638Z,99749.95
2018-10-15T04:36:27.590Z,99743.22
2018-10-15T04:38:53.565Z,99750.67
2018-10-15T04:41:19.521Z,99743.09
2018-10-15T04:43:45.533Z,99745.91
2018-10-15T04:46:11.498Z,99744.78
2018-10-15T04:48:37.463Z,99750.70
2018-10-15T04:51:03.448Z,99749.22
2018-10-15T04:53:29.405Z,99749.91
2018-10-15T04:55:55.380Z,99752.42
2018-10-15T04:58:21.363Z,99753.89
2018-10-15T05:00:47.382Z,99757.59
2018-10-15T05:03:13.361Z,99762.31
2018-10-15T05:05:39.322Z,99753.70
2018-10-15T05:08:05.282Z,99767.82
2018-10-15T05:10:31.321Z,99754.92
2018-10-15T05:12:57.343Z,99762.06
2018-10-15T05:15:23.471Z,99757.74
2018-10-15T05:17:49.460Z,99757.62
2018-10-15T05:20:15.767Z,99765.98
2018-10-15T05:22:41.768Z,99767.44
2018-10-15T05:25:07.774Z,99764.37
2018-10-15T05:27:33.737Z,99763.00
2018-10-15T05:29:59.714Z,99756.78
2018-10-15T05:32:25.690Z,99768.52
2018-10-15T05:34:51.720Z,99770.83
2018-10-15T05:37:17.705Z,99770.70
2018-10-15T05:39:43.683Z,99778.66
2018-10-15T05:42:09.697Z,99785.33
2018-10-15T05:44:35.629Z,99780.22
2018-10-15T05:47:01.713Z,99791.91
2018-10-15T05:49:27.571Z,99789.86
2018-10-15T05:51:53.578Z,99798.95
2018-10-15T05:54:19.610Z,99791.62
2018-10-15T05:56:45.545Z,99793.03
2018-10-15T05:59:11.537Z,99802.02
2018-10-15T06:01:37.519Z,99794.22
2018-10-15T06:04:03.517Z,99803.73
2018-10-15T06:06:29.496Z,99806.70
2018-10-15T06:08:55.482Z,99812.28
2018-10-15T06:11:26.454Z,99810.69
2018-10-15T06:13:52.420Z,99810.94
2018-10-15T06:16:18.415Z,99806.17
2018-10-15T06:18:49.840Z,99804.83
2018-10-15T06:21:15.896Z,99803.10
2018-10-15T06:23:41.885Z,99807.95
2018-10-15T06:26:07.848Z,99811.10
2018-10-15T06:28:34.874Z,99799.94
2018-10-15T06:31:00.812Z,99807.02
2018-10-15T06:33:26.814Z,99801.73
2018-10-15T06:35:52.784Z,99802.75
2018-10-15T06:38:18.821Z,99805.21
2018-10-15T06:40:44.723Z,99805.48
2018-10-15T06:43:10.668Z,99809.05
2018-10-15T06:45:36.629Z,99812.39
2018-10-15T06:48:02.635Z,99813.41
2018-10-15T06:50:28.597Z,99820.34
2018-10-15T06:52:54.577Z,99822.27
2018-10-15T06:55:20.623Z,99828.02
2018-10-15T07:00:18.924Z,99833.41
2018-10-15T07:02:45.985Z,99841.70
2018-10-15T07:05:11.972Z,99836.61
2018-10-15T07:07:37.941Z,99835.52
2018-10-15T07:10:03.906Z,99842.94
2018-10-15T07:12:29.902Z,99851.52
2018-10-15T07:14:55.859Z,99851.67
2018-10-15T07:17:21.822Z,99843.64
2018-10-15T07:19:47.787Z,99841.10
2018-10-15T07:22:13.824Z,99838.85
2018-10-15T07:24:39.769Z,99832.28
2018-10-15T07:27:05.774Z,99847.28
2018-10-15T07:29:31.774Z,99848.42
2018-10-15T07:31:57.717Z,99850.63
2018-10-15T07:34:23.791Z,99843.34
2018-10-15T07:36:49.756Z,99851.77
2018-10-15T07:39:15.714Z,99840.66
2018-10-15T07:41:41.692Z,99845.27
2018-10-15T07:44:07.702Z,99838.88
2018-10-15T07:46:33.707Z,99835.98
2018-10-15T07:48:59.763Z,99843.26
2018-10-15T07:51:27.772Z,99843.63
2018-10-15T07:53:53.782Z,99847.39
2018-10-15T07:56:19.897Z,99843.34
2018-10-15T07:58:45.850Z,99845.14
2018-10-15T08:01:11.898Z,99841.28
2018-10-15T08:03:37.847Z,99836.36
2018-10-15T08:06:03.822Z,99843.98
2018-10-15T08:08:29.939Z,99824.50
2018-10-15T08:10:55.763Z,99841.97
2018-10-15T08:13:21.715Z,99834.70
2018-10-15T08:15:47.841Z,99844.48
2018-10-15T08:18:13.760Z,99847.14
2018-10-15T08:20:39.835Z,99851.82
2018-10-15T08:23:05.776Z,99854.61
2018-10-15T08:25:31.743Z,99852.38
2018-10-15T08:28:01.323Z,99852.80
2018-10-15T08:30:27.303Z,99865.45
2018-10-15T08:32:53.260Z,99863.33
2018-10-15T08:35:19.343Z,99860.40
2018-10-15T08:37:45.379Z,99862.13
2018-10-15T08:40:13.250Z,99860.34
2018-10-15T08:42:39.358Z,99861.23
2018-10-15T08:45:05.420Z,99856.91
2018-10-15T08:47:31.423Z,99856.28
2018-10-15T08:49:58.385Z,99853.03
2018-10-15T08:52:24.407Z,99862.28
2018-10-15T08:54:50.460Z,99853.38
2018-10-15T08:57:16.481Z,99845.50
2018-10-15T08:59:42.511Z,99852.95
2018-10-15T09:02:08.523Z,99851.00
2018-10-15T09:04:34.597Z,99861.84
2018-10-15T09:07:00.712Z,99858.02
2018-10-15T09:09:31.165Z,99864.23
2018-10-15T09:11:57.020Z,99858.18
2018-10-15T09:14:23.005Z,99855.65
2018-10-15T09:16:49.880Z,99850.53
2018-10-15T09:19:15.904Z,99857.35
2018-10-15T09:21:41.919Z,99857.27
2018-10-15T09:24:07.938Z,99859.18
2018-10-15T09:26:33.901Z,99863.36
2018-10-15T09:28:59.916Z,99871.22
2018-10-15T09:31:25.940Z,99875.48
2018-10-15T09:33:51.904Z,99870.41
2018-10-15T09:36:17.911Z,99872.52
2018-10-15T09:38:45.163Z,99862.77
2018-10-15T09:41:11.100Z,99871.78
2018-10-15T09:43:37.990Z,99866.81
2018-10-15T09:46:04.047Z,99871.46
2018-10-15T09:48:30.059Z,99875.73
2018-10-15T09:50:56.986Z,99870.02
2018-10-15T09:53:23.013Z,99875.94
2018-10-15T09:55:48.972Z,99878.00
2018-10-15T09:58:14.959Z,99879.29
2018-10-15T10:00:41.033Z,99860.05
2018-10-15T10:03:07.087Z,99866.06
2018-10-15T10:05:33.091Z,99870.16
2018-10-15T10:07:59.167Z,99849.77
2018-10-15T10:10:25.115Z,99855.23
2018-10-15T10:12:51.278Z,99861.23
2018-10-15T10:15:17.940Z,99858.20
2018-10-15T10:17:44.245Z,99855.20
2018-10-15T10:20:10.163Z,99848.57
2018-10-15T10:22:36.183Z,99851.50
2018-10-15T10:25:03.597Z,99860.43
2018-10-15T10:27:29.618Z,99855.27
2018-10-15T10:29:55.902Z,99848.63
2018-10-15T10:32:21.857Z,99853.98
2018-10-15T10:34:47.907Z,99849.86
2018-10-15T10:37:13.909Z,99855.38
2018-10-15T10:39:39.919Z,99861.48
2018-10-15T10:42:05.944Z,99858.02
2018-10-15T10:44:31.945Z,99858.48
2018-10-15T10:46:58.697Z,99855.08
2018-10-15T10:49:24.711Z,99855.72
2018-10-15T10:51:50.726Z,99866.98
2018-10-15T10:54:16.853Z,99861.45
2018-10-15T10:56:42.805Z,99860.27
2018-10-15T10:59:08.811Z,99861.84
2018-10-15T11:01:34.779Z,99865.52
2018-10-15T11:04:00.770Z,99874.31
2018-10-15T11:06:27.739Z,99860.56
2018-10-15T11:08:53.723Z,99860.97
2018-10-15T11:11:19.781Z,99853.28
2018-10-15T11:13:45.773Z,99849.02
2018-10-15T11:16:11.822Z,99850.36
2018-10-15T11:18:38.008Z,99844.09
2018-10-15T11:21:04.118Z,99844.61
2018-10-15T11:23:30.057Z,99839.98
2018-10-15T11:25:56.069Z,99855.35
2018-10-15T11:28:22.518Z,99855.03
2018-10-15T11:30:48.478Z,99865.54
2018-10-15T11:33:14.469Z,99869.93
2018-10-15T11:35:40.442Z,99870.00
2018-10-15T11:38:06.462Z,99864.17
2018-10-15T11:40:32.510Z,99856.55
2018-10-15T11:42:58.626Z,99853.13
2018-10-15T11:48:00.024Z,99866.81
2018-10-15T11:50:26.053Z,99877.00
2018-10-15T11:52:52.049Z,99871.39
2018-10-15T11:55:18.719Z,99860.36
2018-10-15T11:57:44.739Z,99855.95
2018-10-15T12:00:10.739Z,99857.19
2018-10-15T12:02:36.803Z,99856.56
2018-10-15T12:05:02.805Z,99857.58
2018-10-15T12:07:28.816Z,99847.63
2018-10-15T12:09:54.923Z,99847.92
2018-10-15T12:12:20.969Z,99847.89
2018-10-15T12:14:47.020Z,99835.13
2018-10-15T12:22:20.392Z,99820.03
2018-10-15T12:29:49.197Z,99810.23
2018-10-15T12:32:15.137Z,99800.73
2018-10-15T12:34:41.150Z,99808.58
2018-10-15T12:37:07.160Z,99805.63
2018-10-15T12:39:33.131Z,99810.37
2018-10-15T12:41:59.112Z,99817.14
2018-10-15T12:44:25.071Z,99811.64
2018-10-15T12:46:51.034Z,99818.47
2018-10-15T12:49:17.006Z,99816.91
2018-10-15T12:51:42.972Z,99816.69
2018-10-15T12:54:08.959Z,99815.66
2018-10-15T12:56:34.971Z,99810.53
2018-10-15T12:59:02.783Z,99811.02
2018-10-15T13:01:28.756Z,99817.04
2018-10-15T13:03:58.106Z,99816.80
2018-10-15T13:06:24.115Z,99815.19
2018-10-15T13:08:51.211Z,99809.57
2018-10-15T13:11:17.260Z,99819.45
2018-10-15T13:13:43.313Z,99820.19
2018-10-15T13:16:10.304Z,99820.25
2018-10-15T13:18:36.410Z,99821.64
2018-10-15T13:21:02.468Z,99819.30
2018-10-15T13:23:29.765Z,99814.00
2018-10-15T13:25:55.788Z,99806.34
2018-10-15T13:28:21.801Z,99810.00
2018-10-15T13:30:47.909Z,99810.89
2018-10-15T13:33:13.939Z,99806.47
2018-10-15T13:35:39.900Z,99801.86
2018-10-15T13:38:05.939Z,99807.11
2018-10-15T13:40:33.239Z,99803.63
2018-10-15T13:42:59.277Z,99800.48
2018-10-15T13:45:25.325Z,99803.09
2018-10-15T13:47:51.366Z,99809.75
2018-10-15T13:50:21.181Z,99812.27
2018-10-15T13:52:47.251Z,99806.84
2018-10-15T13:55:13.214Z,99814.80
2018-10-15T13:57:39.225Z,99808.75
2018-10-15T14:00:05.283Z,99808.08
2018-10-15T14:02:31.383Z,99822.16
2018-10-15T14:04:57.640Z,99819.39
2018-10-15T14:07:23.690Z,99821.80
2018-10-15T14:09:49.710Z,99818.32
2018-10-15T14:14:51.945Z,99826.94
2018-10-15T14:17:18.019Z,99829.12
2018-10-15T14:19:44.078Z,99825.81
2018-10-15T14:22:10.146Z,99819.54
2018-10-15T14:24:36.894Z,99827.33
2018-10-15T14:27:03.029Z,99825.07
2018-10-15T14:29:29.090Z,99822.16
2018-10-15T14:31:55.114Z,99823.48
2018-10-15T14:34:22.012Z,99825.27
2018-10-15T14:36:48.028Z,99827.58
2018-10-15T14:39:14.100Z,99824.16
2018-10-15T14:41:40.085Z,99827.01
2018-10-15T14:44:06.959Z,99833.30
2018-10-15T14:46:33.109Z,99835.25
2018-10-15T14:48:59.187Z,99834.14
2018-10-15T14:51:25.137Z,99831.82
2018-10-15T14:53:51.227Z,99834.98
2018-10-15T14:56:17.192Z,99837.92
2018-10-15T14:58:43.162Z,99833.69
2018-10-15T15:01:09.946Z,99830.26
2018-10-15T15:03:37.058Z,99825.28
2018-10-15T15:06:03.817Z,99832.77
2018-10-15T15:08:29.803Z,99827.55
2018-10-15T15:10:55.786Z,99829.86
2018-10-15T15:13:21.925Z,99834.22
2018-10-15T15:15:47.898Z,99824.26
2018-10-15T15:18:14.791Z,99828.66
2018-10-15T15:23:12.139Z,99836.41
2018-10-15T15:25:38.211Z,99836.16
2018-10-15T15:28:04.349Z,99837.11
2018-10-15T15:30:30.301Z,99838.07
2018-10-15T15:32:56.434Z,99832.99
2018-10-15T15:35:22.412Z,99835.71
2018-10-15T15:37:48.445Z,99837.76
2018-10-15T15:40:15.178Z,99835.14
2018-10-15T15:42:41.242Z,99825.07
2018-10-15T15:45:07.327Z,99832.20
2018-10-15T15:47:33.369Z,99829.42
2018-10-15T15:49:59.403Z,99830.41
2018-10-15T15:52:25.470Z,99828.13
2018-10-15T16:07:29.394Z,99854.50
2018-10-15T16:09:55.511Z,99843.41
2018-10-15T16:17:24.234Z,99852.62
2018-10-15T16:19:50.218Z,99856.33
2018-10-15T16:22:16.245Z,99855.73
2018-10-15T16:24:42.352Z,99861.98
2018-10-15T16:27:08.346Z,99867.47
2018-10-15T16:29:34.445Z,99866.19
2018-10-15T16:32:00.442Z,99865.58
2018-10-15T16:34:27.557Z,99860.62
2018-10-15T16:36:53.616Z,99858.56
2018-10-15T16:39:20.700Z,99860.70
2018-10-15T16:41:46.678Z,99864.20
2018-10-15T16:44:12.657Z,99865.69
2018-10-15T16:46:38.630Z,99868.70
2018-10-15T16:49:04.605Z,99866.57
2018-10-15T16:51:30.782Z,99868.64
2018-10-15T16:53:56.716Z,99867.31
2018-10-15T16:56:22.668Z,99870.30
2018-10-15T16:58:48.651Z,99863.91
2018-10-15T17:01:14.659Z,99871.67
2018-10-15T17:03:40.691Z,99873.73
2018-10-15T17:06:06.724Z,99872.96
2018-10-15T17:08:32.700Z,99870.48
2018-10-15T17:10:58.714Z,99869.02
2018-10-15T17:13:25.407Z,99867.52
2018-10-15T17:15:51.535Z,99860.22
2018-10-15T17:18:17.550Z,99865.00
2018-10-15T17:20:43.565Z,99865.02
2018-10-15T17:23:10.651Z,99862.67
2018-10-15T17:25:36.714Z,99864.64
2018-10-15T17:28:02.756Z,99866.02
2018-10-15T17:30:28.798Z,99857.73
2018-10-15T17:32:54.842Z,99858.58
2018-10-15T17:35:20.877Z,99856.73
2018-10-15T17:37:47.102Z,99857.11
2018-10-15T17:40:15.011Z,99850.89
2018-10-15T17:42:41.002Z,99842.83
2018-10-15T17:45:06.970Z,99844.62
2018-10-15T17:47:32.954Z,99842.94
2018-10-15T17:49:58.927Z,99851.06
2018-10-15T17:52:24.912Z,99845.45
2018-10-15T17:54:50.944Z,99851.33
2018-10-15T17:57:17.018Z,99854.02
2018-10-15T17:59:42.974Z,99852.42
2018-10-15T18:02:08.961Z,99848.64
2018-10-15T18:04:35.947Z,99853.20
2018-10-15T18:07:02.779Z,99849.48
2018-10-15T18:09:29.150Z,99860.77
2018-10-15T18:11:55.297Z,99856.66
2018-10-15T18:14:21.389Z,99855.37
2018-10-15T18:16:47.365Z,99860.97
2018-10-15T18:19:13.359Z,99862.03
2018-10-15T18:21:40.183Z,99862.70
2018-10-15T18:24:06.325Z,99870.72
2018-10-15T18:26:32.740Z,99868.14
2018-10-15T18:28:58.870Z,99866.45
2018-10-15T18:31:25.667Z,99863.54
2018-10-15T18:33:51.703Z,99867.14
2018-10-15T18:36:17.717Z,99869.61
2018-10-15T18:38:43.737Z,99876.69
2018-10-15T18:41:09.768Z,99876.31
2018-10-15T18:43:35.788Z,99874.52
2018-10-15T18:46:01.898Z,99869.58
2018-10-15T18:48:27.905Z,99880.02
2018-10-15T18:50:53.994Z,99872.95
2018-10-15T18:53:20.150Z,99877.91
2018-10-15T18:55:46.242Z,99874.84
2018-10-15T18:58:12.277Z,99885.84
2018-10-15T19:00:38.301Z,99882.84
2018-10-15T19:03:04.291Z,99883.25
2018-10-15T19:07:56.053Z,99873.38
2018-10-15T19:10:22.160Z,99878.08
2018-10-15T19:12:48.228Z,99876.53
2018-10-15T19:15:14.329Z,99874.69
2018-10-15T19:17:40.300Z,99882.27
2018-10-15T19:20:06.333Z,99878.87
2018-10-15T19:22:32.329Z,99876.55
2018-10-15T19:24:58.401Z,99874.90
2018-10-15T19:27:24.392Z,99879.91
2018-10-15T19:29:50.384Z,99882.16
2018-10-15T19:32:16.389Z,99881.83
2018-10-15T19:34:42.385Z,99887.83
2018-10-15T19:37:08.338Z,99891.39
2018-10-15T19:39:34.381Z,99894.78
2018-10-15T19:42:00.380Z,99898.43
2018-10-15T19:46:59.636Z,99901.41
2018-10-15T19:49:25.668Z,99901.41
2018-10-15T19:51:51.687Z,99894.79
2018-10-15T19:54:17.702Z,99898.17
2018-10-15T19:56:43.848Z,99897.29
2018-10-15T19:59:09.862Z,99896.67
2018-10-15T20:01:35.857Z,99899.72
2018-10-15T20:04:01.971Z,99902.99
2018-10-15T20:06:27.846Z,99897.21
2018-10-15T20:08:53.841Z,99897.61
2018-10-15T20:11:19.838Z,99893.70
2018-10-15T20:13:45.850Z,99891.39
2018-10-15T20:16:11.835Z,99892.00
2018-10-15T20:18:37.837Z,99893.34
2018-10-15T20:21:03.845Z,99894.92
2018-10-15T20:23:29.856Z,99891.06
2018-10-15T20:25:56.900Z,99894.69
2018-10-15T20:28:22.930Z,99896.00
2018-10-15T20:30:48.886Z,99898.73
2018-10-15T20:33:14.891Z,99902.19
2018-10-15T20:35:40.903Z,99900.96
2018-10-15T20:38:08.950Z,99905.45
2018-10-15T20:43:07.323Z,99908.14
2018-10-15T20:45:33.288Z,99910.71
2018-10-15T20:47:59.358Z,99902.60
2018-10-15T20:50:25.320Z,99897.43
2018-10-15T20:52:51.273Z,99903.73
2018-10-15T20:55:17.278Z,99902.37
2018-10-15T20:57:43.348Z,99910.77
2018-10-15T21:00:09.327Z,99913.34
2018-10-15T21:02:35.430Z,99902.69
2018-10-15T21:05:01.772Z,99903.98
2018-10-15T21:07:27.859Z,99905.50
2018-10-15T21:09:53.907Z,99907.89
2018-10-15T21:12:19.911Z,99899.64
2018-10-15T21:14:46.029Z,99901.09
2018-10-15T21:17:12.045Z,99902.33
2018-10-15T21:19:38.161Z,99901.78
2018-10-15T21:22:04.293Z,99902.51
2018-10-15T21:24:30.452Z,99906.30
2018-10-15T21:26:56.589Z,99900.38
2018-10-15T21:29:22.586Z,99899.45
2018-10-15T21:31:48.739Z,99900.48
2018-10-15T21:34:14.890Z,99908.01
2018-10-15T21:36:41.107Z,99907.70
2018-10-15T21:39:07.200Z,99907.27
2018-10-15T21:41:33.332Z,99907.39
2018-10-15T21:43:59.351Z,99909.83
2018-10-15T21:46:25.464Z,99909.58
2018-10-15T21:48:51.452Z,99908.21
2018-10-15T21:51:17.456Z,99910.31
2018-10-15T21:53:43.530Z,99907.98
2018-10-15T21:56:09.569Z,99909.27
2018-10-15T21:58:35.715Z,99910.44
2018-10-15T22:01:01.847Z,99906.70
2018-10-15T22:03:27.859Z,99903.76
2018-10-15T22:05:53.958Z,99905.36
2018-10-15T22:08:19.896Z,99903.86
2018-10-15T22:10:45.952Z,99912.59
2018-10-15T22:13:11.971Z,99911.78
2018-10-15T22:15:37.984Z,99909.45
2018-10-15T22:18:03.996Z,99908.05
2018-10-15T22:20:30.002Z,99905.68
2018-10-15T22:22:56.004Z,99903.11
2018-10-15T22:25:21.999Z,99906.67
2018-10-15T22:27:48.025Z,99907.83
2018-10-15T22:30:14.058Z,99902.13
2018-10-15T22:32:40.085Z,99903.36
2018-10-15T22:35:06.073Z,99904.11
2018-10-15T22:37:32.097Z,99900.67
2018-10-15T22:39:58.145Z,99901.66
2018-10-15T22:42:24.163Z,99901.66
2018-10-15T22:44:50.201Z,99894.14
2018-10-15T22:47:16.225Z,99887.34
2018-10-15T22:49:42.260Z,99891.92
2018-10-15T22:52:08.270Z,99906.97
2018-10-15T22:54:34.286Z,99906.47
2018-10-15T22:57:00.291Z,99903.36
2018-10-15T22:59:26.351Z,99905.70
2018-10-15T23:01:52.376Z,99912.24
2018-10-15T23:04:18.398Z,99915.70
2018-10-15T23:06:44.427Z,99914.31
2018-10-15T23:09:10.457Z,99913.47
2018-10-15T23:11:36.488Z,99922.74
2018-10-15T23:14:02.538Z,99921.52
2018-10-15T23:16:28.573Z,99928.31
2018-10-15T23:18:54.601Z,99931.25
2018-10-15T23:21:20.697Z,99926.12
2018-10-15T23:23:46.710Z,99925.42
2018-10-15T23:26:12.720Z,99922.33
2018-10-15T23:28:38.746Z,99926.16
2018-10-15T23:31:04.770Z,99920.35
2018-10-15T23:33:30.793Z,99921.02
2018-10-15T23:35:56.824Z,99926.80
2018-10-15T23:38:22.832Z,99923.47
2018-10-15T23:40:48.873Z,99926.30
2018-10-15T23:43:14.884Z,99921.77
2018-10-15T23:45:40.915Z,99931.17
2018-10-15T23:48:06.938Z,99928.48
2018-10-15T23:50:32.963Z,99928.48
2018-10-15T23:52:58.985Z,99936.12
2018-10-15T23:55:25.057Z,99934.72
2018-10-15T23:57:51.078Z,99937.78
